createdAt,value
2023-05-24T00:00:34.395Z,10.50
2023-05-24T00:03:04.635Z,10.40
2023-05-24T00:05:37.595Z,10.50
2023-05-24T00:08:05.944Z,10.50
2023-05-24T00:10:34.117Z,10.50
2023-05-24T00:13:02.177Z,10.40
2023-05-24T00:15:30.181Z,10.40
2023-05-24T00:17:58.236Z,10.30
2023-05-24T00:20:26.900Z,10.30
2023-05-24T00:22:56.298Z,10.20
2023-05-24T00:25:24.505Z,10.20
2023-05-24T00:27:52.510Z,10.10
2023-05-24T00:30:20.834Z,10.10
2023-05-24T00:32:49.194Z,10.10
2023-05-24T00:35:17.596Z,10.00
2023-05-24T00:37:46.432Z,10.00
2023-05-24T00:40:18.757Z,9.90
2023-05-24T00:42:46.895Z,10.00
2023-05-24T00:45:15.103Z,9.80
2023-05-24T00:47:43.482Z,9.70
2023-05-24T00:50:14.438Z,9.60
2023-05-24T00:52:44.084Z,9.50
2023-05-24T00:55:13.381Z,9.50
2023-05-24T00:57:43.006Z,9.40
2023-05-24T01:00:15.247Z,9.40
2023-05-24T01:02:44.222Z,9.30
2023-05-24T01:05:13.645Z,9.30
2023-05-24T01:07:49.077Z,9.20
2023-05-24T01:10:23.542Z,9.20
2023-05-24T01:12:58.306Z,9.20
2023-05-24T01:15:34.753Z,9.10
2023-05-24T01:18:08.354Z,9.10
2023-05-24T01:20:39.164Z,9.10
2023-05-24T01:23:34.301Z,9.20
2023-05-24T01:26:22.298Z,9.20
2023-05-24T01:28:53.103Z,9.20
2023-05-24T01:31:22.738Z,9.10
2023-05-24T01:33:51.032Z,9.20
2023-05-24T01:36:21.053Z,9.10
2023-05-24T01:38:50.808Z,9.20
2023-05-24T01:41:28.901Z,9.20
2023-05-24T01:44:06.395Z,9.20
2023-05-24T01:46:38.521Z,9.00
2023-05-24T01:49:20.533Z,9.00
2023-05-24T01:51:51.833Z,8.90
2023-05-24T01:54:26.599Z,8.90
2023-05-24T01:56:57.655Z,8.90
2023-05-24T01:59:30.070Z,8.90
2023-05-24T02:01:58.904Z,8.90
2023-05-24T02:04:28.457Z,8.90
2023-05-24T02:06:56.584Z,8.90
2023-05-24T02:09:24.703Z,8.90
2023-05-24T02:11:54.568Z,8.90
2023-05-24T02:14:23.028Z,8.80
2023-05-24T02:16:52.903Z,9.00
2023-05-24T02:19:21.623Z,8.70
2023-05-24T02:21:49.694Z,8.70
2023-05-24T02:24:18.667Z,8.60
2023-05-24T02:26:47.207Z,8.70
2023-05-24T02:29:15.497Z,9.40
2023-05-24T02:31:43.613Z,8.90
2023-05-24T02:34:13.135Z,9.20
2023-05-24T02:36:41.403Z,9.00
2023-05-24T02:39:09.770Z,8.80
2023-05-24T02:41:38.061Z,8.70
2023-05-24T02:44:06.688Z,8.70
2023-05-24T02:46:35.021Z,8.70
2023-05-24T02:49:03.298Z,9.10
2023-05-24T02:51:33.424Z,8.80
2023-05-24T02:54:02.173Z,8.80
2023-05-24T02:56:31.026Z,8.80
2023-05-24T02:58:59.236Z,8.80
2023-05-24T03:01:27.837Z,8.80
2023-05-24T03:03:58.822Z,8.90
2023-05-24T03:06:27.222Z,8.80
2023-05-24T03:08:56.789Z,8.80
2023-05-24T03:11:26.432Z,8.80
2023-05-24T03:13:54.528Z,8.80
2023-05-24T03:16:22.789Z,9.60
2023-05-24T03:18:51.112Z,8.80
2023-05-24T03:21:20.650Z,8.80
2023-05-24T03:23:49.107Z,8.80
2023-05-24T03:26:20.574Z,8.80
2023-05-24T03:28:50.616Z,8.80
2023-05-24T03:31:24.210Z,8.70
2023-05-24T03:33:52.938Z,8.80
2023-05-24T03:36:21.899Z,9.20
2023-05-24T03:38:50.065Z,8.70
2023-05-24T03:41:20.668Z,8.70
2023-05-24T03:43:48.922Z,8.60
2023-05-24T03:46:19.008Z,8.60
2023-05-24T03:48:47.527Z,8.50
2023-05-24T03:51:16.273Z,8.50
2023-05-24T03:53:44.607Z,8.40
2023-05-24T03:56:12.746Z,8.40
2023-05-24T03:58:42.450Z,8.30
2023-05-24T04:01:21.918Z,8.30
2023-05-24T04:03:57.853Z,8.90
2023-05-24T04:06:29.189Z,8.30
2023-05-24T04:08:58.924Z,9.00
2023-05-24T04:11:28.527Z,8.50
2023-05-24T04:14:00.754Z,8.70
2023-05-24T04:16:34.320Z,8.30
2023-05-24T04:19:06.359Z,8.30
2023-05-24T04:21:36.745Z,8.40
2023-05-24T04:24:07.270Z,8.90
2023-05-24T04:26:37.690Z,8.70
2023-05-24T04:29:07.814Z,8.80
2023-05-24T04:31:36.180Z,8.90
2023-05-24T04:34:07.778Z,8.90
2023-05-24T04:36:36.236Z,8.90
2023-05-24T04:39:05.269Z,9.30
2023-05-24T04:41:35.369Z,9.00
2023-05-24T04:44:03.612Z,8.90
2023-05-24T04:46:36.233Z,8.90
2023-05-24T04:49:05.831Z,8.90
2023-05-24T04:51:34.761Z,9.00
2023-05-24T04:54:08.627Z,9.00
2023-05-24T04:56:38.344Z,9.00
2023-05-24T04:59:07.024Z,9.30
2023-05-24T05:01:37.172Z,9.10
2023-05-24T05:04:05.526Z,9.10
2023-05-24T05:06:38.659Z,9.10
2023-05-24T05:09:09.382Z,9.20
2023-05-24T05:11:38.079Z,9.20
2023-05-24T05:14:06.290Z,9.20
2023-05-24T05:16:34.422Z,9.20
2023-05-24T05:19:07.525Z,9.30
2023-05-24T05:21:36.422Z,9.30
2023-05-24T05:24:04.984Z,9.40
2023-05-24T05:26:33.109Z,9.40
2023-05-24T05:29:01.169Z,9.40
2023-05-24T05:31:30.596Z,9.40
2023-05-24T05:33:58.736Z,9.50
2023-05-24T05:36:28.355Z,9.80
2023-05-24T05:38:56.631Z,9.50
2023-05-24T05:41:26.102Z,9.50
2023-05-24T05:43:54.189Z,9.50
2023-05-24T05:46:22.426Z,9.50
2023-05-24T05:48:50.756Z,9.50
2023-05-24T05:51:18.929Z,9.60
2023-05-24T05:53:48.541Z,9.60
2023-05-24T05:56:17.673Z,9.60
2023-05-24T05:58:45.758Z,9.70
2023-05-24T06:01:13.784Z,9.80
2023-05-24T06:03:42.049Z,9.70
2023-05-24T06:06:10.314Z,9.70
2023-05-24T06:08:40.944Z,9.80
2023-05-24T06:11:10.491Z,10.40
2023-05-24T06:13:38.524Z,9.90
2023-05-24T06:16:08.729Z,10.20
2023-05-24T06:18:37.671Z,9.90
2023-05-24T06:21:06.767Z,9.90
2023-05-24T06:23:35.005Z,9.90
2023-05-24T06:26:03.608Z,10.00
2023-05-24T06:28:33.311Z,10.00
2023-05-24T06:31:01.656Z,10.30
2023-05-24T06:33:30.092Z,10.70
2023-05-24T06:35:58.248Z,10.20
2023-05-24T06:38:27.924Z,10.30
2023-05-24T06:40:56.169Z,10.40
2023-05-24T06:43:24.336Z,10.40
2023-05-24T06:45:53.834Z,10.40
2023-05-24T06:48:22.431Z,10.60
2023-05-24T06:50:50.721Z,10.60
2023-05-24T06:53:18.822Z,10.70
2023-05-24T06:55:46.956Z,11.00
2023-05-24T06:58:15.186Z,11.40
2023-05-24T07:00:46.000Z,11.90
2023-05-24T07:03:16.078Z,12.50
2023-05-24T07:05:44.219Z,13.10
2023-05-24T07:08:12.390Z,13.50
2023-05-24T07:10:41.129Z,13.20
2023-05-24T07:13:09.585Z,13.00
2023-05-24T07:15:37.743Z,12.70
2023-05-24T07:18:06.234Z,12.00
2023-05-24T07:20:35.794Z,11.50
2023-05-24T07:23:04.607Z,11.40
2023-05-24T07:25:32.742Z,11.20
2023-05-24T07:28:01.112Z,11.30
2023-05-24T07:30:32.730Z,11.20
2023-05-24T07:33:02.016Z,11.30
2023-05-24T07:35:31.306Z,11.30
2023-05-24T07:38:01.077Z,11.30
2023-05-24T07:40:29.173Z,11.40
2023-05-24T07:42:57.436Z,11.50
2023-05-24T07:45:25.658Z,11.50
2023-05-24T07:47:56.032Z,11.50
2023-05-24T07:50:25.342Z,11.60
2023-05-24T07:52:53.764Z,11.50
2023-05-24T07:55:23.161Z,11.50
2023-05-24T07:57:51.636Z,11.50
2023-05-24T08:00:23.220Z,11.50
2023-05-24T08:02:52.338Z,11.50
2023-05-24T08:05:20.826Z,11.60
2023-05-24T08:07:48.855Z,11.60
2023-05-24T08:10:16.975Z,11.60
2023-05-24T08:12:46.907Z,11.70
2023-05-24T08:15:15.138Z,11.80
2023-05-24T08:17:43.160Z,11.90
2023-05-24T08:20:14.368Z,12.00
2023-05-24T08:22:43.529Z,12.00
2023-05-24T08:25:12.192Z,12.10
2023-05-24T08:27:40.426Z,12.10
2023-05-24T08:30:11.101Z,12.10
2023-05-24T08:32:39.576Z,12.10
2023-05-24T08:35:21.298Z,12.40
2023-05-24T08:37:50.219Z,12.20
2023-05-24T08:40:18.941Z,12.60
2023-05-24T08:42:47.483Z,12.40
2023-05-24T08:45:17.031Z,12.50
2023-05-24T08:47:46.328Z,12.50
2023-05-24T08:50:14.882Z,12.60
2023-05-24T08:52:43.741Z,12.60
2023-05-24T08:55:12.558Z,12.70
2023-05-24T08:57:42.056Z,12.70
2023-05-24T09:00:12.940Z,12.70
2023-05-24T09:02:44.335Z,12.80
2023-05-24T09:05:14.603Z,12.90
2023-05-24T09:07:44.907Z,12.90
2023-05-24T09:10:13.334Z,13.20
2023-05-24T09:12:45.880Z,13.20
2023-05-24T09:15:13.967Z,13.10
2023-05-24T09:17:44.499Z,13.10
2023-05-24T09:20:14.172Z,13.20
2023-05-24T09:22:44.049Z,13.20
2023-05-24T09:25:15.086Z,13.30
2023-05-24T09:27:49.956Z,13.30
2023-05-24T09:30:18.138Z,13.40
2023-05-24T09:32:58.302Z,13.40
2023-05-24T09:35:28.370Z,13.50
2023-05-24T09:37:57.749Z,13.60
2023-05-24T09:40:29.363Z,13.60
2023-05-24T09:43:09.037Z,13.80
2023-05-24T09:45:44.335Z,13.60
2023-05-24T09:48:14.165Z,13.70
2023-05-24T09:50:42.580Z,13.70
2023-05-24T09:53:10.907Z,13.80
2023-05-24T09:55:39.543Z,13.80
2023-05-24T09:58:09.155Z,13.90
2023-05-24T10:00:41.324Z,14.00
2023-05-24T10:03:11.150Z,14.00
2023-05-24T10:05:46.022Z,14.10
2023-05-24T10:08:15.084Z,14.00
2023-05-24T10:10:43.899Z,14.10
2023-05-24T10:13:12.783Z,14.10
2023-05-24T10:15:43.521Z,14.30
2023-05-24T10:18:13.824Z,14.30
2023-05-24T10:20:44.486Z,14.40
2023-05-24T10:23:19.564Z,14.50
2023-05-24T10:25:53.824Z,14.70
2023-05-24T10:28:23.946Z,14.60
2023-05-24T10:31:02.927Z,14.70
2023-05-24T10:33:33.660Z,15.10
2023-05-24T10:36:09.292Z,15.30
2023-05-24T10:38:40.766Z,15.50
2023-05-24T10:41:09.361Z,15.90
2023-05-24T10:43:38.750Z,16.20
2023-05-24T10:46:10.486Z,16.60
2023-05-24T10:48:40.534Z,16.70
2023-05-24T10:51:39.581Z,16.90
2023-05-24T10:54:16.858Z,16.80
2023-05-24T10:56:50.297Z,16.80
2023-05-24T10:59:31.815Z,16.60
2023-05-24T11:02:01.086Z,16.50
2023-05-24T11:04:34.134Z,16.30
2023-05-24T11:07:05.849Z,16.00
2023-05-24T11:09:34.997Z,15.70
2023-05-24T11:12:07.633Z,15.50
2023-05-24T11:14:39.452Z,15.50
2023-05-24T11:17:08.388Z,15.50
2023-05-24T11:19:38.385Z,15.50
2023-05-24T11:22:09.785Z,15.50
2023-05-24T11:24:38.457Z,15.30
2023-05-24T11:27:07.181Z,15.30
2023-05-24T11:29:41.865Z,15.30
2023-05-24T11:32:10.266Z,15.40
2023-05-24T11:34:39.936Z,15.40
2023-05-24T11:37:10.590Z,15.40
2023-05-24T11:39:41.170Z,15.40
2023-05-24T11:42:10.116Z,15.50
2023-05-24T11:44:41.650Z,15.50
2023-05-24T11:47:10.195Z,15.50
2023-05-24T11:49:38.418Z,15.60
2023-05-24T11:52:07.494Z,15.50
2023-05-24T11:54:38.971Z,15.50
2023-05-24T11:57:07.572Z,15.50
2023-05-24T11:59:37.892Z,15.50
2023-05-24T12:02:07.997Z,15.50
2023-05-24T12:04:37.776Z,15.50
2023-05-24T12:07:11.863Z,15.60
2023-05-24T12:09:41.516Z,15.60
2023-05-24T12:12:09.988Z,15.60
2023-05-24T12:14:39.494Z,15.70
2023-05-24T12:17:16.153Z,15.70
2023-05-24T12:19:45.081Z,15.70
2023-05-24T12:22:13.228Z,15.70
2023-05-24T12:24:43.769Z,15.50
2023-05-24T12:27:12.801Z,15.70
2023-05-24T12:29:42.702Z,15.60
2023-05-24T12:32:23.306Z,15.60
2023-05-24T12:34:53.601Z,15.60
2023-05-24T12:37:22.125Z,15.70
2023-05-24T12:39:53.837Z,15.70
2023-05-24T12:42:24.091Z,15.90
2023-05-24T12:44:54.443Z,15.90
2023-05-24T12:47:24.383Z,15.90
2023-05-24T12:49:55.038Z,15.90
2023-05-24T12:52:24.631Z,15.90
2023-05-24T12:54:53.068Z,15.90
2023-05-24T12:57:21.594Z,15.90
2023-05-24T12:59:49.701Z,15.90
2023-05-24T13:02:17.753Z,15.90
2023-05-24T13:04:47.713Z,16.00
2023-05-24T13:07:15.975Z,15.90
2023-05-24T13:09:44.050Z,16.00
2023-05-24T13:12:12.587Z,16.00
2023-05-24T13:14:40.690Z,16.00
2023-05-24T13:17:08.914Z,15.90
2023-05-24T13:19:37.654Z,15.90
2023-05-24T13:22:07.537Z,15.90
2023-05-24T13:24:37.637Z,15.80
2023-05-24T13:27:06.385Z,15.90
2023-05-24T13:29:45.445Z,15.80
2023-05-24T13:32:21.078Z,15.80
2023-05-24T13:34:52.398Z,15.90
2023-05-24T13:37:22.381Z,16.00
2023-05-24T13:39:53.566Z,15.90
2023-05-24T13:42:22.096Z,15.90
2023-05-24T13:44:50.339Z,16.00
2023-05-24T13:47:31.065Z,15.90
2023-05-24T13:50:07.849Z,16.00
2023-05-24T13:52:37.681Z,16.20
2023-05-24T13:55:06.972Z,16.30
2023-05-24T13:57:50.596Z,16.40
2023-05-24T14:00:21.365Z,16.50
2023-05-24T14:02:49.806Z,16.40
2023-05-24T14:05:27.452Z,16.30
2023-05-24T14:08:00.373Z,16.30
2023-05-24T14:10:28.736Z,16.40
2023-05-24T14:15:30.017Z,16.70
2023-05-24T14:17:58.272Z,16.70
2023-05-24T14:20:26.429Z,16.80
2023-05-24T14:22:56.384Z,16.90
2023-05-24T14:25:27.331Z,16.90
2023-05-24T14:27:55.433Z,16.90
2023-05-24T14:30:23.936Z,16.90
2023-05-24T14:32:52.202Z,16.90
2023-05-24T14:35:21.058Z,16.70
2023-05-24T14:37:51.635Z,16.70
2023-05-24T14:40:20.327Z,16.60
2023-05-24T14:42:49.930Z,16.50
2023-05-24T14:45:18.174Z,16.50
2023-05-24T14:47:46.310Z,16.40
2023-05-24T14:50:14.553Z,16.30
2023-05-24T14:52:42.708Z,16.10
2023-05-24T14:55:11.127Z,16.00
2023-05-24T14:57:39.227Z,15.90
2023-05-24T15:00:10.531Z,15.80
2023-05-24T15:02:39.106Z,15.70
2023-05-24T15:05:08.450Z,15.70
2023-05-24T15:07:36.711Z,15.70
2023-05-24T15:10:05.009Z,15.70
2023-05-24T15:12:33.165Z,15.60
2023-05-24T15:15:01.388Z,15.40
2023-05-24T15:17:32.170Z,15.30
2023-05-24T15:20:00.666Z,15.40
2023-05-24T15:22:28.864Z,15.30
2023-05-24T15:24:56.978Z,15.30
2023-05-24T15:27:29.029Z,15.40
2023-05-24T15:30:00.854Z,15.60
2023-05-24T15:32:30.317Z,15.70
2023-05-24T15:35:00.229Z,15.80
2023-05-24T15:37:28.661Z,15.70
2023-05-24T15:39:56.938Z,15.70
2023-05-24T15:42:25.459Z,15.70
2023-05-24T15:44:53.955Z,15.80
2023-05-24T15:47:22.541Z,15.80
2023-05-24T15:49:53.533Z,15.80
2023-05-24T15:52:21.849Z,16.00
2023-05-24T15:54:52.045Z,15.40
2023-05-24T15:57:20.291Z,15.30
2023-05-24T15:59:50.685Z,15.20
2023-05-24T16:02:21.078Z,15.10
2023-05-24T16:04:51.545Z,15.00
2023-05-24T16:07:19.806Z,15.10
2023-05-24T16:09:50.151Z,15.10
2023-05-24T16:12:18.381Z,14.90
2023-05-24T16:14:46.883Z,14.90
2023-05-24T16:17:15.303Z,14.80
2023-05-24T16:19:46.328Z,14.80
2023-05-24T16:22:15.939Z,14.90
2023-05-24T16:24:44.935Z,15.00
2023-05-24T16:27:13.285Z,15.00
2023-05-24T16:29:41.453Z,15.10
2023-05-24T16:32:11.924Z,15.10
2023-05-24T16:34:55.557Z,15.10
2023-05-24T16:37:26.501Z,15.10
2023-05-24T16:39:54.891Z,15.10
2023-05-24T16:42:26.211Z,15.00
2023-05-24T16:44:54.360Z,15.00
2023-05-24T16:47:22.940Z,14.90
2023-05-24T16:49:51.242Z,14.80
2023-05-24T16:52:19.880Z,14.60
2023-05-24T16:54:52.619Z,14.60
2023-05-24T16:57:20.850Z,14.30
2023-05-24T16:59:50.744Z,14.40
2023-05-24T17:02:19.150Z,14.60
2023-05-24T17:04:47.240Z,14.70
2023-05-24T17:07:15.770Z,14.80
2023-05-24T17:09:43.859Z,15.00
2023-05-24T17:12:13.344Z,15.20
2023-05-24T17:14:43.915Z,15.20
2023-05-24T17:17:12.168Z,15.20
2023-05-24T17:19:40.370Z,14.90
2023-05-24T17:22:09.034Z,14.60
2023-05-24T17:24:38.687Z,14.40
2023-05-24T17:27:07.265Z,14.20
2023-05-24T17:29:37.188Z,14.00
2023-05-24T17:32:08.345Z,13.80
2023-05-24T17:34:36.487Z,13.70
2023-05-24T17:37:04.749Z,13.60
2023-05-24T17:39:32.906Z,13.50
2023-05-24T17:42:01.275Z,13.50
2023-05-24T17:44:29.664Z,13.40
2023-05-24T17:47:01.682Z,13.40
2023-05-24T17:49:32.353Z,13.20
2023-05-24T17:52:01.109Z,13.20
2023-05-24T17:54:29.706Z,13.00
2023-05-24T17:56:58.144Z,12.90
2023-05-24T17:59:31.861Z,12.90
2023-05-24T18:02:01.705Z,12.80
2023-05-24T18:04:30.344Z,12.70
2023-05-24T18:06:58.561Z,12.70
2023-05-24T18:09:27.435Z,12.70
2023-05-24T18:11:55.479Z,12.70
2023-05-24T18:14:23.676Z,12.60
2023-05-24T18:16:51.789Z,12.50
2023-05-24T18:19:21.552Z,12.60
2023-05-24T18:21:50.313Z,12.40
2023-05-24T18:24:18.466Z,12.40
2023-05-24T18:26:47.397Z,12.40
2023-05-24T18:29:15.890Z,12.30
2023-05-24T18:31:44.035Z,12.30
2023-05-24T18:34:12.433Z,12.20
2023-05-24T18:36:41.944Z,12.20
2023-05-24T18:39:10.010Z,12.10
2023-05-24T18:41:38.039Z,12.10
2023-05-24T18:44:06.250Z,12.10
2023-05-24T18:46:36.355Z,12.10
2023-05-24T18:49:06.675Z,12.10
2023-05-24T18:51:34.700Z,12.10
2023-05-24T18:54:04.226Z,12.00
2023-05-24T18:56:32.509Z,12.00
2023-05-24T18:59:00.575Z,12.00
2023-05-24T19:01:28.911Z,12.00
2023-05-24T19:03:59.397Z,12.00
2023-05-24T19:06:27.458Z,12.00
2023-05-24T19:09:00.146Z,12.00
2023-05-24T19:11:30.608Z,11.90
2023-05-24T19:13:58.957Z,12.00
2023-05-24T19:16:27.133Z,11.90
2023-05-24T19:18:55.295Z,11.90
2023-05-24T19:21:24.273Z,11.90
2023-05-24T19:23:52.482Z,11.70
2023-05-24T19:26:20.606Z,11.80
2023-05-24T19:28:52.000Z,11.80
2023-05-24T19:31:20.808Z,11.70
2023-05-24T19:33:59.978Z,11.70
2023-05-24T19:36:30.697Z,11.70
2023-05-24T19:38:58.863Z,11.80
2023-05-24T19:41:26.986Z,11.70
2023-05-24T19:43:58.694Z,11.70
2023-05-24T19:46:26.889Z,11.60
2023-05-24T19:48:55.094Z,11.60
2023-05-24T19:51:23.210Z,11.60
2023-05-24T19:53:51.496Z,11.60
2023-05-24T19:56:20.636Z,11.60
2023-05-24T19:58:49.947Z,11.60
2023-05-24T20:01:19.441Z,11.60
2023-05-24T20:03:48.588Z,11.60
2023-05-24T20:06:17.907Z,11.50
2023-05-24T20:08:46.965Z,11.60
2023-05-24T20:11:16.285Z,11.50
2023-05-24T20:13:44.535Z,11.50
2023-05-24T20:16:13.225Z,11.50
2023-05-24T20:18:42.877Z,11.50
2023-05-24T20:21:11.428Z,11.60
2023-05-24T20:23:42.735Z,11.40
2023-05-24T20:26:11.088Z,11.40
2023-05-24T20:28:39.197Z,11.40
2023-05-24T20:31:08.166Z,11.40
2023-05-24T20:33:38.618Z,11.40
2023-05-24T20:36:08.797Z,11.40
2023-05-24T20:38:37.587Z,11.40
2023-05-24T20:41:05.937Z,11.40
2023-05-24T20:43:34.037Z,11.30
2023-05-24T20:46:02.194Z,11.30
2023-05-24T20:48:33.523Z,11.30
2023-05-24T20:51:01.878Z,11.20
2023-05-24T20:53:31.293Z,11.20
2023-05-24T20:55:59.422Z,11.20
2023-05-24T20:58:27.473Z,11.40
2023-05-24T21:00:55.886Z,11.10
2023-05-24T21:03:27.273Z,11.10
2023-05-24T21:05:55.840Z,11.10
2023-05-24T21:08:24.017Z,11.10
2023-05-24T21:10:55.528Z,11.10
2023-05-24T21:13:25.484Z,11.10
2023-05-24T21:15:53.770Z,11.00
2023-05-24T21:18:21.831Z,11.00
2023-05-24T21:20:49.973Z,11.00
2023-05-24T21:23:18.261Z,11.00
2023-05-24T21:25:46.415Z,10.90
2023-05-24T21:28:16.074Z,10.80
2023-05-24T21:30:44.290Z,10.80
2023-05-24T21:33:12.754Z,10.80
2023-05-24T21:35:41.106Z,10.70
2023-05-24T21:38:09.438Z,11.00
2023-05-24T21:40:39.676Z,10.70
2023-05-24T21:43:12.320Z,10.60
2023-05-24T21:45:42.134Z,10.60
2023-05-24T21:48:10.453Z,10.60
2023-05-24T21:50:40.528Z,10.60
2023-05-24T21:53:08.672Z,10.60
2023-05-24T21:55:36.867Z,10.60
2023-05-24T21:58:05.311Z,10.60
2023-05-24T22:00:33.466Z,10.70
2023-05-24T22:03:03.033Z,10.70
2023-05-24T22:05:31.144Z,10.70
2023-05-24T22:07:59.302Z,10.70
2023-05-24T22:10:27.715Z,10.70
2023-05-24T22:12:55.821Z,10.70
2023-05-24T22:15:26.844Z,10.70
2023-05-24T22:17:58.671Z,10.70
2023-05-24T22:20:30.471Z,10.70
2023-05-24T22:22:58.962Z,10.70
2023-05-24T22:25:29.945Z,10.70
2023-05-24T22:27:58.033Z,10.60
2023-05-24T22:30:27.480Z,10.50
2023-05-24T22:32:56.313Z,10.40
2023-05-24T22:35:24.554Z,10.40
2023-05-24T22:37:54.031Z,11.20
2023-05-24T22:40:25.177Z,10.40
2023-05-24T22:42:53.323Z,10.30
2023-05-24T22:45:22.751Z,10.20
2023-05-24T22:47:51.187Z,10.20
2023-05-24T22:50:19.427Z,10.20
2023-05-24T22:52:48.597Z,10.10
2023-05-24T22:55:18.195Z,10.00
2023-05-24T22:57:47.005Z,10.00
2023-05-24T23:00:15.838Z,9.90
2023-05-24T23:02:44.007Z,9.80
2023-05-24T23:05:12.201Z,9.80
2023-05-24T23:07:40.641Z,9.70
2023-05-24T23:10:09.536Z,9.60
2023-05-24T23:12:42.081Z,9.50
2023-05-24T23:15:11.474Z,9.40
2023-05-24T23:17:39.863Z,9.30
2023-05-24T23:20:10.615Z,9.40
2023-05-24T23:22:39.018Z,9.40
2023-05-24T23:25:08.812Z,9.30
2023-05-24T23:27:38.476Z,9.30
2023-05-24T23:30:08.116Z,9.30
2023-05-24T23:32:36.400Z,9.30
2023-05-24T23:35:05.075Z,9.30
2023-05-24T23:37:33.680Z,9.20
2023-05-24T23:40:06.239Z,9.30
2023-05-24T23:42:34.374Z,9.60
2023-05-24T23:45:04.275Z,9.30
2023-05-24T23:47:32.430Z,9.20
2023-05-24T23:50:00.557Z,9.10
2023-05-24T23:52:28.750Z,9.20
2023-05-24T23:54:56.928Z,9.10
2023-05-24T23:57:27.120Z,9.00
2023-05-24T23:59:59.814Z,9.80
